Map

Track Data

SID SEASON NUMBER BASIN SUBBASIN NAME ISO_TIME NATURE LAT LON WMO_WIND WMO_PRES WMO_AGENCY TRACK_TYPE DIST2LAND LANDFALL IFLAG USA_AGENCY USA_ATCF_ID USA_LAT USA_LON USA_RECORD USA_STATUS USA_WIND USA_PRES USA_SSHS USA_R34_NE USA_R34_SE USA_R34_SW USA_R34_NW USA_R50_NE USA_R50_SE USA_R50_SW USA_R50_NW USA_R64_NE USA_R64_SE USA_R64_SW USA_R64_NW USA_POCI USA_ROCI USA_RMW USA_EYE TOKYO_LAT TOKYO_LON TOKYO_GRADE TOKYO_WIND TOKYO_PRES TOKYO_R50_DIR TOKYO_R50_LONG TOKYO_R50_SHORT TOKYO_R30_DIR TOKYO_R30_LONG TOKYO_R30_SHORT TOKYO_LAND CMA_LAT CMA_LON CMA_CAT CMA_WIND CMA_PRES HKO_LAT HKO_LON HKO_CAT HKO_WIND HKO_PRES NEWDELHI_LAT NEWDELHI_LON NEWDELHI_GRADE NEWDELHI_WIND NEWDELHI_PRES NEWDELHI_CI NEWDELHI_DP NEWDELHI_POCI REUNION_LAT REUNION_LON REUNION_TYPE REUNION_WIND REUNION_PRES REUNION_TNUM REUNION_CI REUNION_RMW REUNION_R34_NE REUNION_R34_SE REUNION_R34_SW REUNION_R34_NW REUNION_R50_NE REUNION_R50_SE REUNION_R50_SW REUNION_R50_NW REUNION_R64_NE REUNION_R64_SE REUNION_R64_SW REUNION_R64_NW BOM_LAT BOM_LON BOM_TYPE BOM_WIND BOM_PRES BOM_TNUM BOM_CI BOM_RMW BOM_R34_NE BOM_R34_SE BOM_R34_SW BOM_R34_NW BOM_R50_NE BOM_R50_SE BOM_R50_SW BOM_R50_NW BOM_R64_NE BOM_R64_SE BOM_R64_SW BOM_R64_NW BOM_ROCI BOM_POCI BOM_EYE BOM_POS_METHOD BOM_PRES_METHOD NADI_LAT NADI_LON NADI_CAT NADI_WIND NADI_PRES WELLINGTON_LAT WELLINGTON_LON WELLINGTON_WIND WELLINGTON_PRES DS824_LAT DS824_LON DS824_STAGE DS824_WIND DS824_PRES TD9636_LAT TD9636_LON TD9636_STAGE TD9636_WIND TD9636_PRES TD9635_LAT TD9635_LON TD9635_WIND TD9635_PRES TD9635_ROCI NEUMANN_LAT NEUMANN_LON NEUMANN_CLASS NEUMANN_WIND NEUMANN_PRES MLC_LAT MLC_LON MLC_CLASS MLC_WIND MLC_PRES USA_GUST BOM_GUST BOM_GUST_PER REUNION_GUST REUNION_GUST_PER USA_SEAHGT USA_SEARAD_NE USA_SEARAD_SE USA_SEARAD_SW USA_SEARAD_NW STORM_SPEED STORM_DIR
1979277N13256 1979 98 EP MM HILDA 1979-10-04 00:00:00 TS 13.0000 -104.000 25 hurdat_epa main 573 573 O________OO___ hurdat_epa EP081979 13.0000 -104.000 TD 25 -1 13.0000 -104.000 TC 25 13.0000 -104.000 1 25 13 279
1979277N13256 1979 98 EP MM HILDA 1979-10-04 03:00:00 TS 13.0947 -104.647 main 588 588 P________PP___ EP081979 13.0902 -104.637 TD 25 -1 13.0902 -104.637 TC 25 13.1124 -104.687 1 26 13 279
1979277N13256 1979 98 EP MM HILDA 1979-10-04 06:00:00 TS 13.2058 -105.314 25 hurdat_epa main 602 602 O________OP___ hurdat_epa EP081979 13.2000 -105.300 TD 25 -1 13.2000 -105.300 TC 25 13.2291 -105.370 1 27 14 281
1979277N13256 1979 98 EP MM HILDA 1979-10-04 09:00:00 TS 13.3452 -106.008 main 620 610 P________PP___ EP081979 13.3424 -106.000 TD 27 -1 13.3424 -106.000 TC 27 13.3563 -106.042 1 28 14 282
1979277N13256 1979 98 EP MM HILDA 1979-10-04 12:00:00 TS 13.5000 -106.700 30 hurdat_epa main 636 636 O________OO___ hurdat_epa EP081979 13.5000 -106.700 TD 30 -1 13.5000 -106.700 TC 30 13.5000 -106.700 1 30 14 283
1979277N13256 1979 98 EP MM HILDA 1979-10-04 15:00:00 TS 13.6467 -107.360 main 671 662 P________PP___ EP081979 13.6423 -107.365 TD 30 -1 13.6423 -107.365 TC 30 13.6640 -107.339 1 30 13 284
1979277N13256 1979 98 EP MM HILDA 1979-10-04 18:00:00 TS 13.8083 -107.993 30 hurdat_epa main 693 693 O________OP___ hurdat_epa EP081979 13.8000 -108.000 TD 30 -1 13.8000 -108.000 TC 30 13.8416 -107.965 1 30 13 286
1979277N13256 1979 98 EP MM HILDA 1979-10-04 21:00:00 TS 13.9985 -108.603 main 708 708 P________PP___ EP081979 13.9923 -108.608 TD 30 -1 13.9923 -108.608 TC 30 14.0234 -108.583 1 30 12 288
1979277N13256 1979 98 EP MM HILDA 1979-10-05 00:00:00 TS 14.2000 -109.200 30 hurdat_epa main 729 729 O________OO___ hurdat_epa EP081979 14.2000 -109.200 TD 30 -1 14.2000 -109.200 TC 30 14.2000 -109.200 1 30 12 289
1979277N13256 1979 98 EP MM HILDA 1979-10-05 03:00:00 TS 14.4056 -109.799 main 756 756 P________PP___ EP081979 14.4148 -109.793 TD 35 0 14.4148 -109.793 TC 35 14.3689 -109.825 1 32 12 288
1979277N13256 1979 98 EP MM HILDA 1979-10-05 06:00:00 TS 14.5859 -110.410 40 hurdat_epa main 786 786 O________OP___ hurdat_epa EP081979 14.6000 -110.400 TS 40 0 14.6000 -110.400 TC 40 14.5293 -110.450 1 35 13 284
1979277N13256 1979 98 EP MM HILDA 1979-10-05 09:00:00 TS 14.7070 -111.055 main 832 832 P________PP___ EP081979 14.7149 -111.050 TS 40 0 14.7149 -111.050 TC 40 14.6751 -111.075 1 37 13 280
1979277N13256 1979 98 EP MM HILDA 1979-10-05 12:00:00 TS 14.8000 -111.700 40 hurdat_epa main 873 873 O________OO___ hurdat_epa EP081979 14.8000 -111.700 TS 40 0 14.8000 -111.700 TC 40 14.8000 -111.700 2 40 12 279
1979277N13256 1979 98 EP MM HILDA 1979-10-05 15:00:00 TS 14.9042 -112.305 main 916 916 P________PP___ EP081979 14.9072 -112.300 TS 37 0 14.9072 -112.300 TC 37 14.8920 -112.326 2 37 12 279
1979277N13256 1979 98 EP MM HILDA 1979-10-05 18:00:00 TS 14.9929 -112.910 35 hurdat_epa main 934 934 O________OP___ hurdat_epa EP081979 15.0000 -112.900 TS 35 0 15.0000 -112.900 TC 35 14.9643 -112.951 2 35 12 277
1979277N13256 1979 98 EP MM HILDA 1979-10-05 21:00:00 TS 15.0459 -113.561 main 961 950 P________PP___ EP081979 15.0500 -113.558 TS 32 -1 15.0500 -113.558 TC 32 15.0295 -113.575 2 32 13 275
1979277N13256 1979 98 EP MM HILDA 1979-10-06 00:00:00 TS 15.1000 -114.200 30 hurdat_epa main 977 977 O________OO___ hurdat_epa EP081979 15.1000 -114.200 TD 30 -1 15.1000 -114.200 TC 30 15.1000 -114.200 1 30 12 277
1979277N13256 1979 98 EP MM HILDA 1979-10-06 03:00:00 TS 15.1908 -114.759 main 997 997 P________PP___ EP081979 15.1921 -114.743 TD 30 -1 15.1921 -114.743 TC 30 15.1855 -114.824 1 30 11 280
1979277N13256 1979 98 EP MM HILDA 1979-10-06 06:00:00 TS 15.2975 -115.324 30 hurdat_epa main 1016 1016 O________OP___ hurdat_epa EP081979 15.3000 -115.300 TD 30 -1 15.3000 -115.300 TC 30 15.2839 -115.449 1 30 12 280
1979277N13256 1979 98 EP MM HILDA 1979-10-06 09:00:00 TS 15.3923 -115.995 main 1048 1048 P________PP___ EP081979 15.3925 -115.985 TD 30 -1 15.3925 -115.985 TC 30 15.3904 -116.074 1 30 13 279
1979277N13256 1979 98 EP MM HILDA 1979-10-06 12:00:00 TS 15.5000 -116.700 30 hurdat_epa main 1085 1085 O________OO___ hurdat_epa EP081979 15.5000 -116.700 TD 30 -1 15.5000 -116.700 TC 30 15.5000 -116.700 1 30 13 281
1979277N13256 1979 98 EP MM HILDA 1979-10-06 15:00:00 TS 15.6402 -117.367 main 1126 1118 P________P____ EP081979 15.6402 -117.367 TD 27 -1 15.6402 -117.367 TC 27 1 13 283
1979277N13256 1979 98 EP MM HILDA 1979-10-06 18:00:00 TS 15.8000 -118.000 25 hurdat_epa main 1154 O________O____ hurdat_epa EP081979 15.8000 -118.000 TD 25 -1 15.8000 -118.000 TC 25 1 13 285

About IBTrACS Database

This database is a web-friendly format of International Best Track Archive for Climate Stewardship (IBTrACS), a global best track data archive curated by NOAA dating back to 1842.

Updated: 2021-12-03